sensor_id;sensor_type;location;lat;lon;timestamp;P1;durP1;ratioP1;P2;durP2;ratioP2
31906;SDS011;18455;50.858;13.662;2023-06-24T00:02:19;21.80;;;16.92;;
31906;SDS011;18455;50.858;13.662;2023-06-24T00:07:20;22.75;;;17.30;;
31906;SDS011;18455;50.858;13.662;2023-06-24T00:12:22;26.63;;;18.25;;
31906;SDS011;18455;50.858;13.662;2023-06-24T00:17:22;24.48;;;16.90;;
31906;SDS011;18455;50.858;13.662;2023-06-24T00:22:23;31.45;;;18.20;;
31906;SDS011;18455;50.858;13.662;2023-06-24T00:27:23;28.58;;;19.08;;
31906;SDS011;18455;50.858;13.662;2023-06-24T00:32:23;27.20;;;18.52;;
31906;SDS011;18455;50.858;13.662;2023-06-24T00:37:24;26.42;;;19.95;;
31906;SDS011;18455;50.858;13.662;2023-06-24T00:42:24;26.30;;;19.65;;
31906;SDS011;18455;50.858;13.662;2023-06-24T00:47:25;34.28;;;21.77;;
31906;SDS011;18455;50.858;13.662;2023-06-24T00:52:25;25.52;;;20.25;;
31906;SDS011;18455;50.858;13.662;2023-06-24T00:57:28;34.17;;;22.92;;
31906;SDS011;18455;50.858;13.662;2023-06-24T01:02:28;38.38;;;23.02;;
31906;SDS011;18455;50.858;13.662;2023-06-24T01:07:32;42.72;;;26.90;;
31906;SDS011;18455;50.858;13.662;2023-06-24T01:12:35;33.85;;;25.50;;
31906;SDS011;18455;50.858;13.662;2023-06-24T01:17:40;37.95;;;24.92;;
31906;SDS011;18455;50.858;13.662;2023-06-24T01:23:01;42.30;;;26.15;;
31906;SDS011;18455;50.858;13.662;2023-06-24T01:33:32;40.20;;;27.05;;
31906;SDS011;18455;50.858;13.662;2023-06-24T01:38:42;40.90;;;26.85;;
31906;SDS011;18455;50.858;13.662;2023-06-24T01:43:44;38.22;;;26.63;;
31906;SDS011;18455;50.858;13.662;2023-06-24T01:48:47;42.70;;;26.92;;
31906;SDS011;18455;50.858;13.662;2023-06-24T01:53:49;43.65;;;28.10;;
31906;SDS011;18455;50.858;13.662;2023-06-24T01:58:53;39.15;;;27.52;;
31906;SDS011;18455;50.858;13.662;2023-06-24T02:03:55;42.63;;;27.63;;
31906;SDS011;18455;50.858;13.662;2023-06-24T02:08:57;46.15;;;31.55;;
31906;SDS011;18455;50.858;13.662;2023-06-24T02:14:01;42.03;;;26.88;;
31906;SDS011;18455;50.858;13.662;2023-06-24T02:19:01;46.88;;;32.20;;
31906;SDS011;18455;50.858;13.662;2023-06-24T02:24:03;49.03;;;31.67;;
31906;SDS011;18455;50.858;13.662;2023-06-24T02:29:08;46.90;;;31.75;;
31906;SDS011;18455;50.858;13.662;2023-06-24T02:34:09;49.78;;;32.33;;
31906;SDS011;18455;50.858;13.662;2023-06-24T02:39:10;52.10;;;35.85;;
31906;SDS011;18455;50.858;13.662;2023-06-24T02:44:11;47.97;;;36.47;;
31906;SDS011;18455;50.858;13.662;2023-06-24T02:49:12;56.05;;;37.03;;
31906;SDS011;18455;50.858;13.662;2023-06-24T02:54:14;52.58;;;37.13;;
31906;SDS011;18455;50.858;13.662;2023-06-24T02:59:47;61.10;;;37.70;;
31906;SDS011;18455;50.858;13.662;2023-06-24T03:04:48;55.05;;;38.97;;
31906;SDS011;18455;50.858;13.662;2023-06-24T03:09:51;55.25;;;37.08;;
31906;SDS011;18455;50.858;13.662;2023-06-24T03:14:51;46.50;;;33.28;;
31906;SDS011;18455;50.858;13.662;2023-06-24T03:19:52;46.05;;;32.80;;
31906;SDS011;18455;50.858;13.662;2023-06-24T03:24:53;42.83;;;31.15;;
31906;SDS011;18455;50.858;13.662;2023-06-24T03:29:53;41.88;;;29.40;;
31906;SDS011;18455;50.858;13.662;2023-06-24T03:34:54;41.85;;;30.88;;
31906;SDS011;18455;50.858;13.662;2023-06-24T03:39:55;41.95;;;29.23;;
31906;SDS011;18455;50.858;13.662;2023-06-24T03:44:56;38.33;;;29.95;;
31906;SDS011;18455;50.858;13.662;2023-06-24T03:49:56;34.65;;;26.98;;
31906;SDS011;18455;50.858;13.662;2023-06-24T03:54:57;41.97;;;30.23;;
31906;SDS011;18455;50.858;13.662;2023-06-24T03:59:57;42.20;;;29.33;;
31906;SDS011;18455;50.858;13.662;2023-06-24T04:04:58;41.38;;;30.27;;
31906;SDS011;18455;50.858;13.662;2023-06-24T04:10:00;40.08;;;31.65;;
31906;SDS011;18455;50.858;13.662;2023-06-24T04:15:01;37.65;;;28.42;;
31906;SDS011;18455;50.858;13.662;2023-06-24T04:20:03;37.72;;;29.48;;
31906;SDS011;18455;50.858;13.662;2023-06-24T04:25:08;38.00;;;29.35;;
31906;SDS011;18455;50.858;13.662;2023-06-24T04:30:09;33.38;;;27.77;;
31906;SDS011;18455;50.858;13.662;2023-06-24T04:35:10;36.90;;;29.55;;
31906;SDS011;18455;50.858;13.662;2023-06-24T04:40:11;37.25;;;29.35;;
31906;SDS011;18455;50.858;13.662;2023-06-24T04:45:13;36.47;;;29.02;;
31906;SDS011;18455;50.858;13.662;2023-06-24T04:50:14;38.03;;;28.83;;
31906;SDS011;18455;50.858;13.662;2023-06-24T04:55:14;37.42;;;29.20;;
31906;SDS011;18455;50.858;13.662;2023-06-24T05:00:14;35.90;;;27.95;;
31906;SDS011;18455;50.858;13.662;2023-06-24T05:05:15;40.28;;;28.25;;
31906;SDS011;18455;50.858;13.662;2023-06-24T05:10:15;34.30;;;25.67;;
31906;SDS011;18455;50.858;13.662;2023-06-24T05:15:16;30.85;;;25.23;;
31906;SDS011;18455;50.858;13.662;2023-06-24T05:20:16;31.00;;;24.58;;
31906;SDS011;18455;50.858;13.662;2023-06-24T05:25:17;33.40;;;26.33;;
31906;SDS011;18455;50.858;13.662;2023-06-24T05:30:18;31.45;;;24.98;;
31906;SDS011;18455;50.858;13.662;2023-06-24T05:35:18;39.20;;;27.38;;
31906;SDS011;18455;50.858;13.662;2023-06-24T05:40:19;30.13;;;24.95;;
31906;SDS011;18455;50.858;13.662;2023-06-24T05:45:19;36.10;;;26.10;;
31906;SDS011;18455;50.858;13.662;2023-06-24T05:50:19;39.13;;;26.15;;
31906;SDS011;18455;50.858;13.662;2023-06-24T05:55:20;37.53;;;25.55;;
31906;SDS011;18455;50.858;13.662;2023-06-24T06:00:20;40.78;;;26.95;;
31906;SDS011;18455;50.858;13.662;2023-06-24T06:05:20;31.08;;;24.88;;
31906;SDS011;18455;50.858;13.662;2023-06-24T06:10:21;33.78;;;27.20;;
31906;SDS011;18455;50.858;13.662;2023-06-24T06:15:21;33.10;;;25.08;;
31906;SDS011;18455;50.858;13.662;2023-06-24T06:20:22;41.40;;;24.65;;
31906;SDS011;18455;50.858;13.662;2023-06-24T06:25:22;34.92;;;24.48;;
31906;SDS011;18455;50.858;13.662;2023-06-24T06:30:23;33.10;;;24.15;;
31906;SDS011;18455;50.858;13.662;2023-06-24T06:35:23;31.67;;;24.05;;
31906;SDS011;18455;50.858;13.662;2023-06-24T06:40:23;27.60;;;22.33;;
31906;SDS011;18455;50.858;13.662;2023-06-24T06:45:24;30.13;;;22.10;;
31906;SDS011;18455;50.858;13.662;2023-06-24T06:50:24;25.65;;;18.85;;
31906;SDS011;18455;50.858;13.662;2023-06-24T06:55:26;23.88;;;18.20;;
31906;SDS011;18455;50.858;13.662;2023-06-24T07:00:26;26.05;;;16.00;;
31906;SDS011;18455;50.858;13.662;2023-06-24T07:05:27;18.58;;;14.60;;
31906;SDS011;18455;50.858;13.662;2023-06-24T07:10:27;15.65;;;12.23;;
31906;SDS011;18455;50.858;13.662;2023-06-24T07:15:27;17.58;;;11.52;;
31906;SDS011;18455;50.858;13.662;2023-06-24T07:20:28;17.38;;;11.13;;
31906;SDS011;18455;50.858;13.662;2023-06-24T07:25:28;19.88;;;12.55;;
31906;SDS011;18455;50.858;13.662;2023-06-24T07:30:28;14.48;;;10.98;;
31906;SDS011;18455;50.858;13.662;2023-06-24T07:35:29;15.68;;;10.73;;
31906;SDS011;18455;50.858;13.662;2023-06-24T07:40:29;20.35;;;11.43;;
31906;SDS011;18455;50.858;13.662;2023-06-24T07:45:30;16.20;;;11.65;;
31906;SDS011;18455;50.858;13.662;2023-06-24T07:50:30;16.02;;;10.20;;
31906;SDS011;18455;50.858;13.662;2023-06-24T07:55:31;16.05;;;11.13;;
31906;SDS011;18455;50.858;13.662;2023-06-24T08:00:32;17.17;;;11.93;;
31906;SDS011;18455;50.858;13.662;2023-06-24T08:05:33;17.13;;;10.90;;
31906;SDS011;18455;50.858;13.662;2023-06-24T08:10:33;16.83;;;13.30;;
31906;SDS011;18455;50.858;13.662;2023-06-24T08:15:34;10.35;;;9.25;;
31906;SDS011;18455;50.858;13.662;2023-06-24T08:20:34;9.38;;;7.07;;
31906;SDS011;18455;50.858;13.662;2023-06-24T08:25:34;10.10;;;7.32;;
31906;SDS011;18455;50.858;13.662;2023-06-24T08:30:35;10.43;;;7.22;;
31906;SDS011;18455;50.858;13.662;2023-06-24T08:35:35;12.68;;;6.13;;
31906;SDS011;18455;50.858;13.662;2023-06-24T08:40:36;7.03;;;4.90;;
31906;SDS011;18455;50.858;13.662;2023-06-24T08:45:40;6.18;;;4.50;;
31906;SDS011;18455;50.858;13.662;2023-06-24T08:50:42;8.43;;;4.97;;
31906;SDS011;18455;50.858;13.662;2023-06-24T08:55:44;6.22;;;4.53;;
31906;SDS011;18455;50.858;13.662;2023-06-24T09:00:45;7.25;;;4.45;;
31906;SDS011;18455;50.858;13.662;2023-06-24T09:05:46;7.65;;;4.28;;
31906;SDS011;18455;50.858;13.662;2023-06-24T09:10:52;5.10;;;4.35;;
31906;SDS011;18455;50.858;13.662;2023-06-24T09:15:57;11.18;;;4.28;;
31906;SDS011;18455;50.858;13.662;2023-06-24T09:20:57;8.43;;;4.60;;
31906;SDS011;18455;50.858;13.662;2023-06-24T09:25:57;9.65;;;4.70;;
31906;SDS011;18455;50.858;13.662;2023-06-24T09:31:05;11.32;;;4.47;;
31906;SDS011;18455;50.858;13.662;2023-06-24T09:36:12;5.70;;;4.15;;
31906;SDS011;18455;50.858;13.662;2023-06-24T09:41:13;8.38;;;4.80;;
31906;SDS011;18455;50.858;13.662;2023-06-24T09:46:14;9.60;;;3.75;;
31906;SDS011;18455;50.858;13.662;2023-06-24T09:51:15;6.95;;;4.68;;
31906;SDS011;18455;50.858;13.662;2023-06-24T09:56:16;7.15;;;4.45;;
31906;SDS011;18455;50.858;13.662;2023-06-24T10:01:17;8.05;;;4.30;;
31906;SDS011;18455;50.858;13.662;2023-06-24T10:06:17;6.88;;;5.00;;
31906;SDS011;18455;50.858;13.662;2023-06-24T10:11:18;9.13;;;4.70;;
31906;SDS011;18455;50.858;13.662;2023-06-24T10:16:18;5.80;;;4.45;;
31906;SDS011;18455;50.858;13.662;2023-06-24T10:21:19;5.68;;;4.05;;
31906;SDS011;18455;50.858;13.662;2023-06-24T10:26:26;7.70;;;4.70;;
31906;SDS011;18455;50.858;13.662;2023-06-24T10:32:02;6.95;;;4.50;;
31906;SDS011;18455;50.858;13.662;2023-06-24T10:36:55;6.22;;;4.30;;
31906;SDS011;18455;50.858;13.662;2023-06-24T10:47:25;7.03;;;4.25;;
31906;SDS011;18455;50.858;13.662;2023-06-24T10:52:26;4.40;;;3.90;;
31906;SDS011;18455;50.858;13.662;2023-06-24T10:57:27;7.18;;;5.03;;
31906;SDS011;18455;50.858;13.662;2023-06-24T11:02:28;6.75;;;5.40;;
31906;SDS011;18455;50.858;13.662;2023-06-24T11:07:32;5.70;;;4.65;;
31906;SDS011;18455;50.858;13.662;2023-06-24T11:12:35;7.50;;;4.88;;
31906;SDS011;18455;50.858;13.662;2023-06-24T11:17:38;9.75;;;5.28;;
31906;SDS011;18455;50.858;13.662;2023-06-24T11:22:39;6.47;;;4.20;;
31906;SDS011;18455;50.858;13.662;2023-06-24T11:27:40;6.05;;;4.68;;
31906;SDS011;18455;50.858;13.662;2023-06-24T11:32:41;5.63;;;4.10;;
31906;SDS011;18455;50.858;13.662;2023-06-24T11:37:43;6.20;;;4.60;;
31906;SDS011;18455;50.858;13.662;2023-06-24T11:42:45;5.72;;;4.70;;
31906;SDS011;18455;50.858;13.662;2023-06-24T11:47:47;5.30;;;4.43;;
31906;SDS011;18455;50.858;13.662;2023-06-24T11:52:53;6.03;;;4.60;;
31906;SDS011;18455;50.858;13.662;2023-06-24T11:58:00;5.25;;;4.47;;
31906;SDS011;18455;50.858;13.662;2023-06-24T12:03:07;4.60;;;4.07;;
31906;SDS011;18455;50.858;13.662;2023-06-24T12:08:09;6.78;;;4.45;;
31906;SDS011;18455;50.858;13.662;2023-06-24T12:13:11;5.68;;;4.38;;
31906;SDS011;18455;50.858;13.662;2023-06-24T12:18:12;6.72;;;4.10;;
31906;SDS011;18455;50.858;13.662;2023-06-24T12:23:13;5.93;;;4.50;;
31906;SDS011;18455;50.858;13.662;2023-06-24T12:28:14;6.22;;;4.20;;
31906;SDS011;18455;50.858;13.662;2023-06-24T12:33:14;4.30;;;3.80;;
31906;SDS011;18455;50.858;13.662;2023-06-24T12:38:14;6.80;;;4.67;;
31906;SDS011;18455;50.858;13.662;2023-06-24T12:43:16;7.63;;;4.60;;
31906;SDS011;18455;50.858;13.662;2023-06-24T12:48:16;5.38;;;4.30;;
31906;SDS011;18455;50.858;13.662;2023-06-24T12:53:17;4.85;;;3.85;;
31906;SDS011;18455;50.858;13.662;2023-06-24T12:58:22;8.90;;;3.70;;
31906;SDS011;18455;50.858;13.662;2023-06-24T13:03:23;5.57;;;4.03;;
31906;SDS011;18455;50.858;13.662;2023-06-24T13:08:23;4.70;;;3.73;;
31906;SDS011;18455;50.858;13.662;2023-06-24T13:13:23;4.30;;;3.50;;
31906;SDS011;18455;50.858;13.662;2023-06-24T13:18:24;4.03;;;3.63;;
31906;SDS011;18455;50.858;13.662;2023-06-24T13:23:24;6.90;;;4.27;;
31906;SDS011;18455;50.858;13.662;2023-06-24T13:28:25;4.95;;;4.07;;
31906;SDS011;18455;50.858;13.662;2023-06-24T13:33:25;6.50;;;3.95;;
31906;SDS011;18455;50.858;13.662;2023-06-24T13:38:25;5.83;;;4.00;;
31906;SDS011;18455;50.858;13.662;2023-06-24T13:43:26;6.10;;;4.03;;
31906;SDS011;18455;50.858;13.662;2023-06-24T13:48:26;6.50;;;3.70;;
31906;SDS011;18455;50.858;13.662;2023-06-24T13:53:26;3.93;;;3.40;;
31906;SDS011;18455;50.858;13.662;2023-06-24T13:58:27;5.70;;;3.80;;
31906;SDS011;18455;50.858;13.662;2023-06-24T14:03:27;5.43;;;3.40;;
31906;SDS011;18455;50.858;13.662;2023-06-24T14:08:28;3.90;;;3.37;;
31906;SDS011;18455;50.858;13.662;2023-06-24T14:13:28;5.85;;;3.90;;
31906;SDS011;18455;50.858;13.662;2023-06-24T14:18:28;7.13;;;3.55;;
31906;SDS011;18455;50.858;13.662;2023-06-24T14:23:32;4.10;;;2.92;;
31906;SDS011;18455;50.858;13.662;2023-06-24T14:28:32;3.55;;;2.80;;
31906;SDS011;18455;50.858;13.662;2023-06-24T14:33:33;3.67;;;3.00;;
31906;SDS011;18455;50.858;13.662;2023-06-24T14:38:33;3.80;;;3.10;;
31906;SDS011;18455;50.858;13.662;2023-06-24T14:43:33;4.60;;;2.87;;
31906;SDS011;18455;50.858;13.662;2023-06-24T14:48:34;3.43;;;3.13;;
31906;SDS011;18455;50.858;13.662;2023-06-24T14:53:34;6.80;;;3.10;;
31906;SDS011;18455;50.858;13.662;2023-06-24T14:58:35;4.47;;;3.33;;
31906;SDS011;18455;50.858;13.662;2023-06-24T15:03:35;3.97;;;3.30;;
31906;SDS011;18455;50.858;13.662;2023-06-24T15:08:35;4.93;;;3.40;;
31906;SDS011;18455;50.858;13.662;2023-06-24T15:13:36;7.32;;;3.42;;
31906;SDS011;18455;50.858;13.662;2023-06-24T15:18:43;4.10;;;2.92;;
31906;SDS011;18455;50.858;13.662;2023-06-24T15:23:45;5.60;;;3.50;;
31906;SDS011;18455;50.858;13.662;2023-06-24T15:28:45;3.53;;;3.13;;
31906;SDS011;18455;50.858;13.662;2023-06-24T15:33:46;7.45;;;3.67;;
31906;SDS011;18455;50.858;13.662;2023-06-24T15:38:46;4.40;;;3.13;;
31906;SDS011;18455;50.858;13.662;2023-06-24T15:43:47;7.60;;;3.43;;
31906;SDS011;18455;50.858;13.662;2023-06-24T15:48:47;4.07;;;2.90;;
31906;SDS011;18455;50.858;13.662;2023-06-24T15:53:48;4.07;;;3.50;;
31906;SDS011;18455;50.858;13.662;2023-06-24T15:58:48;4.47;;;3.50;;
31906;SDS011;18455;50.858;13.662;2023-06-24T16:03:48;6.17;;;3.37;;
31906;SDS011;18455;50.858;13.662;2023-06-24T16:08:49;4.67;;;3.70;;
31906;SDS011;18455;50.858;13.662;2023-06-24T16:13:49;6.25;;;3.83;;
31906;SDS011;18455;50.858;13.662;2023-06-24T16:18:50;5.10;;;4.00;;
31906;SDS011;18455;50.858;13.662;2023-06-24T16:23:50;6.15;;;3.80;;
31906;SDS011;18455;50.858;13.662;2023-06-24T16:28:50;5.45;;;4.03;;
31906;SDS011;18455;50.858;13.662;2023-06-24T16:33:51;5.90;;;3.63;;
31906;SDS011;18455;50.858;13.662;2023-06-24T16:38:51;5.13;;;3.78;;
31906;SDS011;18455;50.858;13.662;2023-06-24T16:43:51;4.97;;;3.80;;
31906;SDS011;18455;50.858;13.662;2023-06-24T16:48:52;6.72;;;4.47;;
31906;SDS011;18455;50.858;13.662;2023-06-24T16:53:53;7.78;;;4.15;;
31906;SDS011;18455;50.858;13.662;2023-06-24T16:58:53;4.75;;;4.22;;
31906;SDS011;18455;50.858;13.662;2023-06-24T17:03:53;9.02;;;4.50;;
31906;SDS011;18455;50.858;13.662;2023-06-24T17:08:54;5.50;;;4.40;;
31906;SDS011;18455;50.858;13.662;2023-06-24T17:13:56;5.82;;;4.50;;
31906;SDS011;18455;50.858;13.662;2023-06-24T17:18:57;5.60;;;4.97;;
31906;SDS011;18455;50.858;13.662;2023-06-24T17:23:57;4.65;;;4.00;;
31906;SDS011;18455;50.858;13.662;2023-06-24T17:28:57;9.05;;;4.72;;
31906;SDS011;18455;50.858;13.662;2023-06-24T17:33:58;12.82;;;6.90;;
31906;SDS011;18455;50.858;13.662;2023-06-24T17:38:58;5.60;;;5.00;;
31906;SDS011;18455;50.858;13.662;2023-06-24T17:43:59;7.75;;;5.53;;
31906;SDS011;18455;50.858;13.662;2023-06-24T17:48:59;11.80;;;5.10;;
31906;SDS011;18455;50.858;13.662;2023-06-24T17:54:00;7.57;;;4.72;;
31906;SDS011;18455;50.858;13.662;2023-06-24T17:59:00;7.45;;;5.78;;
31906;SDS011;18455;50.858;13.662;2023-06-24T18:04:00;8.00;;;5.80;;
31906;SDS011;18455;50.858;13.662;2023-06-24T18:09:01;6.82;;;5.28;;
31906;SDS011;18455;50.858;13.662;2023-06-24T18:14:01;6.35;;;5.03;;
31906;SDS011;18455;50.858;13.662;2023-06-24T18:19:02;8.98;;;5.15;;
31906;SDS011;18455;50.858;13.662;2023-06-24T18:24:02;4.93;;;4.43;;
31906;SDS011;18455;50.858;13.662;2023-06-24T18:29:03;5.30;;;4.80;;
31906;SDS011;18455;50.858;13.662;2023-06-24T18:34:04;5.07;;;4.57;;
31906;SDS011;18455;50.858;13.662;2023-06-24T18:39:05;6.18;;;4.20;;
31906;SDS011;18455;50.858;13.662;2023-06-24T18:44:05;4.95;;;4.45;;
31906;SDS011;18455;50.858;13.662;2023-06-24T18:49:07;6.95;;;4.85;;
31906;SDS011;18455;50.858;13.662;2023-06-24T18:54:07;10.10;;;5.47;;
31906;SDS011;18455;50.858;13.662;2023-06-24T18:59:08;7.03;;;6.22;;
31906;SDS011;18455;50.858;13.662;2023-06-24T19:04:08;10.77;;;5.95;;
31906;SDS011;18455;50.858;13.662;2023-06-24T19:09:09;8.07;;;7.28;;
31906;SDS011;18455;50.858;13.662;2023-06-24T19:14:09;8.88;;;6.22;;
31906;SDS011;18455;50.858;13.662;2023-06-24T19:19:09;6.75;;;6.05;;
31906;SDS011;18455;50.858;13.662;2023-06-24T19:24:10;9.10;;;6.68;;
31906;SDS011;18455;50.858;13.662;2023-06-24T19:29:10;8.45;;;6.72;;
31906;SDS011;18455;50.858;13.662;2023-06-24T19:34:10;8.63;;;7.40;;
31906;SDS011;18455;50.858;13.662;2023-06-24T19:39:11;15.70;;;6.82;;
31906;SDS011;18455;50.858;13.662;2023-06-24T19:44:11;15.57;;;7.05;;
31906;SDS011;18455;50.858;13.662;2023-06-24T19:49:12;11.15;;;6.68;;
31906;SDS011;18455;50.858;13.662;2023-06-24T19:54:12;12.38;;;7.25;;
31906;SDS011;18455;50.858;13.662;2023-06-24T19:59:13;8.35;;;6.57;;
31906;SDS011;18455;50.858;13.662;2023-06-24T20:04:13;10.10;;;7.72;;
31906;SDS011;18455;50.858;13.662;2023-06-24T20:09:13;9.48;;;7.50;;
31906;SDS011;18455;50.858;13.662;2023-06-24T20:14:14;10.20;;;7.40;;
31906;SDS011;18455;50.858;13.662;2023-06-24T20:19:14;9.82;;;7.50;;
31906;SDS011;18455;50.858;13.662;2023-06-24T20:24:14;11.23;;;7.97;;
31906;SDS011;18455;50.858;13.662;2023-06-24T20:29:15;11.15;;;8.02;;
31906;SDS011;18455;50.858;13.662;2023-06-24T20:34:15;10.43;;;8.15;;
31906;SDS011;18455;50.858;13.662;2023-06-24T20:39:17;12.60;;;7.93;;
31906;SDS011;18455;50.858;13.662;2023-06-24T20:44:17;13.50;;;8.02;;
31906;SDS011;18455;50.858;13.662;2023-06-24T20:49:17;11.65;;;7.43;;
31906;SDS011;18455;50.858;13.662;2023-06-24T20:54:18;11.88;;;7.97;;
31906;SDS011;18455;50.858;13.662;2023-06-24T20:59:18;9.57;;;7.50;;
31906;SDS011;18455;50.858;13.662;2023-06-24T21:04:18;9.73;;;7.05;;
31906;SDS011;18455;50.858;13.662;2023-06-24T21:09:19;10.93;;;7.65;;
31906;SDS011;18455;50.858;13.662;2023-06-24T21:14:19;12.35;;;7.97;;
31906;SDS011;18455;50.858;13.662;2023-06-24T21:19:19;11.88;;;7.82;;
31906;SDS011;18455;50.858;13.662;2023-06-24T21:24:20;8.80;;;7.32;;
31906;SDS011;18455;50.858;13.662;2023-06-24T21:29:20;10.98;;;7.90;;
31906;SDS011;18455;50.858;13.662;2023-06-24T21:34:21;8.73;;;7.20;;
31906;SDS011;18455;50.858;13.662;2023-06-24T21:39:21;10.50;;;8.07;;
31906;SDS011;18455;50.858;13.662;2023-06-24T21:44:21;9.85;;;7.82;;
31906;SDS011;18455;50.858;13.662;2023-06-24T21:49:22;12.25;;;8.07;;
31906;SDS011;18455;50.858;13.662;2023-06-24T21:54:22;11.23;;;8.68;;
31906;SDS011;18455;50.858;13.662;2023-06-24T21:59:22;10.48;;;8.25;;
31906;SDS011;18455;50.858;13.662;2023-06-24T22:04:23;9.05;;;7.43;;
31906;SDS011;18455;50.858;13.662;2023-06-24T22:09:23;11.20;;;7.68;;
31906;SDS011;18455;50.858;13.662;2023-06-24T22:14:23;13.45;;;8.50;;
31906;SDS011;18455;50.858;13.662;2023-06-24T22:19:24;12.35;;;7.70;;
31906;SDS011;18455;50.858;13.662;2023-06-24T22:24:24;10.02;;;7.95;;
31906;SDS011;18455;50.858;13.662;2023-06-24T22:29:24;11.18;;;7.65;;
31906;SDS011;18455;50.858;13.662;2023-06-24T22:34:25;10.52;;;8.27;;
31906;SDS011;18455;50.858;13.662;2023-06-24T22:39:25;12.73;;;7.03;;
31906;SDS011;18455;50.858;13.662;2023-06-24T22:44:25;10.25;;;7.40;;
31906;SDS011;18455;50.858;13.662;2023-06-24T22:49:26;15.15;;;7.07;;
31906;SDS011;18455;50.858;13.662;2023-06-24T22:54:29;11.88;;;8.18;;
31906;SDS011;18455;50.858;13.662;2023-06-24T22:59:30;9.15;;;7.65;;
31906;SDS011;18455;50.858;13.662;2023-06-24T23:04:30;11.02;;;8.20;;
31906;SDS011;18455;50.858;13.662;2023-06-24T23:09:30;12.10;;;7.50;;
31906;SDS011;18455;50.858;13.662;2023-06-24T23:14:31;8.88;;;7.80;;
31906;SDS011;18455;50.858;13.662;2023-06-24T23:19:32;14.48;;;7.28;;
31906;SDS011;18455;50.858;13.662;2023-06-24T23:24:33;8.02;;;7.22;;
31906;SDS011;18455;50.858;13.662;2023-06-24T23:29:36;8.98;;;7.75;;
31906;SDS011;18455;50.858;13.662;2023-06-24T23:34:37;10.38;;;7.38;;
31906;SDS011;18455;50.858;13.662;2023-06-24T23:39:38;12.02;;;7.57;;
31906;SDS011;18455;50.858;13.662;2023-06-24T23:44:38;8.32;;;7.50;;
31906;SDS011;18455;50.858;13.662;2023-06-24T23:49:39;11.00;;;7.65;;
31906;SDS011;18455;50.858;13.662;2023-06-24T23:54:39;10.63;;;8.75;;
31906;SDS011;18455;50.858;13.662;2023-06-24T23:59:39;8.60;;;7.22;;
